sensor_id;sensor_type;location;lat;lon;timestamp;temperature;humidity
77247;SHT35;66279;42.820;23.374;2023-08-17T00:00:25;21.15;72.24
77247;SHT35;66279;42.820;23.374;2023-08-17T00:02:51;21.00;72.29
77247;SHT35;66279;42.820;23.374;2023-08-17T00:05:16;20.89;72.57
77247;SHT35;66279;42.820;23.374;2023-08-17T00:07:42;20.81;72.89
77247;SHT35;66279;42.820;23.374;2023-08-17T00:10:08;20.69;72.78
77247;SHT35;66279;42.820;23.374;2023-08-17T00:12:33;20.68;73.22
77247;SHT35;66279;42.820;23.374;2023-08-17T00:14:59;20.69;72.50
77247;SHT35;66279;42.820;23.374;2023-08-17T00:17:25;20.59;73.24
77247;SHT35;66279;42.820;23.374;2023-08-17T00:19:50;20.50;73.32
77247;SHT35;66279;42.820;23.374;2023-08-17T00:22:16;20.33;74.37
77247;SHT35;66279;42.820;23.374;2023-08-17T00:24:42;20.24;74.38
77247;SHT35;66279;42.820;23.374;2023-08-17T00:27:10;20.14;74.59
77247;SHT35;66279;42.820;23.374;2023-08-17T00:29:36;20.05;75.20
77247;SHT35;66279;42.820;23.374;2023-08-17T00:32:02;19.94;75.29
77247;SHT35;66279;42.820;23.374;2023-08-17T00:34:28;19.87;75.74
77247;SHT35;66279;42.820;23.374;2023-08-17T00:36:53;19.83;75.71
77247;SHT35;66279;42.820;23.374;2023-08-17T00:39:19;19.79;75.68
77247;SHT35;66279;42.820;23.374;2023-08-17T00:41:45;19.76;76.22
77247;SHT35;66279;42.820;23.374;2023-08-17T00:44:11;19.75;76.27
77247;SHT35;66279;42.820;23.374;2023-08-17T00:46:37;19.69;76.46
77247;SHT35;66279;42.820;23.374;2023-08-17T00:49:03;19.61;77.05
77247;SHT35;66279;42.820;23.374;2023-08-17T00:51:30;19.59;77.18
77247;SHT35;66279;42.820;23.374;2023-08-17T00:53:58;19.55;77.36
77247;SHT35;66279;42.820;23.374;2023-08-17T00:56:23;19.52;77.08
77247;SHT35;66279;42.820;23.374;2023-08-17T00:58:49;19.55;77.58
77247;SHT35;66279;42.820;23.374;2023-08-17T01:01:16;19.52;77.82
77247;SHT35;66279;42.820;23.374;2023-08-17T01:03:42;19.51;77.81
77247;SHT35;66279;42.820;23.374;2023-08-17T01:06:08;19.61;77.52
77247;SHT35;66279;42.820;23.374;2023-08-17T01:08:35;19.63;77.48
77247;SHT35;66279;42.820;23.374;2023-08-17T01:16:12;19.62;77.99
77247;SHT35;66279;42.820;23.374;2023-08-17T01:18:40;19.61;77.98
77247;SHT35;66279;42.820;23.374;2023-08-17T01:21:08;19.58;78.16
77247;SHT35;66279;42.820;23.374;2023-08-17T01:23:35;19.59;78.73
77247;SHT35;66279;42.820;23.374;2023-08-17T01:26:01;19.48;79.37
77247;SHT35;66279;42.820;23.374;2023-08-17T01:28:27;19.47;79.23
77247;SHT35;66279;42.820;23.374;2023-08-17T01:30:57;19.55;78.94
77247;SHT35;66279;42.820;23.374;2023-08-17T01:33:43;19.55;79.91
77247;SHT35;66279;42.820;23.374;2023-08-17T01:36:25;19.57;79.52
77247;SHT35;66279;42.820;23.374;2023-08-17T01:38:52;19.55;79.48
77247;SHT35;66279;42.820;23.374;2023-08-17T01:41:20;19.55;80.18
77247;SHT35;66279;42.820;23.374;2023-08-17T01:43:48;19.48;80.17
77247;SHT35;66279;42.820;23.374;2023-08-17T01:46:14;19.48;80.02
77247;SHT35;66279;42.820;23.374;2023-08-17T01:48:41;19.45;80.38
77247;SHT35;66279;42.820;23.374;2023-08-17T01:51:07;19.45;81.29
77247;SHT35;66279;42.820;23.374;2023-08-17T01:53:33;19.39;81.65
77247;SHT35;66279;42.820;23.374;2023-08-17T01:55:58;19.36;81.45
77247;SHT35;66279;42.820;23.374;2023-08-17T01:58:24;19.34;81.72
77247;SHT35;66279;42.820;23.374;2023-08-17T02:00:49;19.31;81.67
77247;SHT35;66279;42.820;23.374;2023-08-17T02:03:15;19.32;81.54
77247;SHT35;66279;42.820;23.374;2023-08-17T02:05:47;19.28;82.35
77247;SHT35;66279;42.820;23.374;2023-08-17T02:08:12;19.39;81.89
77247;SHT35;66279;42.820;23.374;2023-08-17T02:10:38;19.44;82.19
77247;SHT35;66279;42.820;23.374;2023-08-17T02:13:03;19.44;81.06
77247;SHT35;66279;42.820;23.374;2023-08-17T02:15:29;19.45;81.27
77247;SHT35;66279;42.820;23.374;2023-08-17T02:17:56;19.45;82.29
77247;SHT35;66279;42.820;23.374;2023-08-17T02:20:22;19.42;82.34
77247;SHT35;66279;42.820;23.374;2023-08-17T02:22:47;19.41;82.85
77247;SHT35;66279;42.820;23.374;2023-08-17T02:25:12;19.36;83.06
77247;SHT35;66279;42.820;23.374;2023-08-17T02:27:38;19.35;83.00
77247;SHT35;66279;42.820;23.374;2023-08-17T02:30:04;19.32;83.34
77247;SHT35;66279;42.820;23.374;2023-08-17T02:32:29;19.32;83.36
77247;SHT35;66279;42.820;23.374;2023-08-17T02:34:55;19.32;82.89
77247;SHT35;66279;42.820;23.374;2023-08-17T02:37:20;19.31;83.05
77247;SHT35;66279;42.820;23.374;2023-08-17T02:39:46;19.34;82.21
77247;SHT35;66279;42.820;23.374;2023-08-17T02:42:11;19.34;82.28
77247;SHT35;66279;42.820;23.374;2023-08-17T02:44:37;19.34;82.53
77247;SHT35;66279;42.820;23.374;2023-08-17T02:47:03;19.27;81.98
77247;SHT35;66279;42.820;23.374;2023-08-17T02:49:28;19.28;82.35
77247;SHT35;66279;42.820;23.374;2023-08-17T02:51:54;19.24;82.37
77247;SHT35;66279;42.820;23.374;2023-08-17T02:54:19;19.21;82.83
77247;SHT35;66279;42.820;23.374;2023-08-17T02:56:45;19.18;82.83
77247;SHT35;66279;42.820;23.374;2023-08-17T02:59:10;19.15;82.02
77247;SHT35;66279;42.820;23.374;2023-08-17T03:01:36;19.15;82.51
77247;SHT35;66279;42.820;23.374;2023-08-17T03:04:01;19.12;82.44
77247;SHT35;66279;42.820;23.374;2023-08-17T03:06:27;19.10;81.78
77247;SHT35;66279;42.820;23.374;2023-08-17T03:08:52;19.08;82.36
77247;SHT35;66279;42.820;23.374;2023-08-17T03:11:19;19.04;82.78
77247;SHT35;66279;42.820;23.374;2023-08-17T03:13:46;19.00;82.82
77247;SHT35;66279;42.820;23.374;2023-08-17T03:16:13;18.99;83.02
77247;SHT35;66279;42.820;23.374;2023-08-17T03:18:39;18.89;83.69
77247;SHT35;66279;42.820;23.374;2023-08-17T03:21:04;18.83;83.11
77247;SHT35;66279;42.820;23.374;2023-08-17T03:23:30;18.83;83.20
77247;SHT35;66279;42.820;23.374;2023-08-17T03:25:55;18.83;83.58
77247;SHT35;66279;42.820;23.374;2023-08-17T03:28:21;18.80;83.21
77247;SHT35;66279;42.820;23.374;2023-08-17T03:30:46;18.80;82.77
77247;SHT35;66279;42.820;23.374;2023-08-17T03:33:12;18.80;83.00
77247;SHT35;66279;42.820;23.374;2023-08-17T03:35:37;18.74;83.43
77247;SHT35;66279;42.820;23.374;2023-08-17T03:38:03;18.70;82.87
77247;SHT35;66279;42.820;23.374;2023-08-17T03:40:28;18.72;82.83
77247;SHT35;66279;42.820;23.374;2023-08-17T03:42:54;18.63;82.63
77247;SHT35;66279;42.820;23.374;2023-08-17T03:45:20;18.55;82.66
77247;SHT35;66279;42.820;23.374;2023-08-17T03:47:45;18.52;82.30
77247;SHT35;66279;42.820;23.374;2023-08-17T03:50:11;18.46;82.81
77247;SHT35;66279;42.820;23.374;2023-08-17T03:52:36;18.45;82.21
77247;SHT35;66279;42.820;23.374;2023-08-17T03:55:02;18.38;82.25
77247;SHT35;66279;42.820;23.374;2023-08-17T03:57:27;18.35;82.54
77247;SHT35;66279;42.820;23.374;2023-08-17T03:59:53;18.18;82.77
77247;SHT35;66279;42.820;23.374;2023-08-17T04:02:21;18.18;82.62
77247;SHT35;66279;42.820;23.374;2023-08-17T04:04:46;18.13;83.23
77247;SHT35;66279;42.820;23.374;2023-08-17T04:07:14;18.02;83.21
77247;SHT35;66279;42.820;23.374;2023-08-17T04:09:43;17.91;83.96
77247;SHT35;66279;42.820;23.374;2023-08-17T04:12:09;17.88;83.76
77247;SHT35;66279;42.820;23.374;2023-08-17T04:14:34;17.88;84.09
77247;SHT35;66279;42.820;23.374;2023-08-17T04:17:00;17.90;84.10
77247;SHT35;66279;42.820;23.374;2023-08-17T04:19:26;17.94;84.20
77247;SHT35;66279;42.820;23.374;2023-08-17T04:21:51;17.92;84.43
77247;SHT35;66279;42.820;23.374;2023-08-17T04:24:16;17.91;84.59
77247;SHT35;66279;42.820;23.374;2023-08-17T04:26:42;17.88;84.86
77247;SHT35;66279;42.820;23.374;2023-08-17T04:29:07;17.84;85.27
77247;SHT35;66279;42.820;23.374;2023-08-17T04:31:33;17.81;85.36
77247;SHT35;66279;42.820;23.374;2023-08-17T04:33:59;17.94;85.12
77247;SHT35;66279;42.820;23.374;2023-08-17T04:36:24;18.00;84.94
77247;SHT35;66279;42.820;23.374;2023-08-17T04:38:50;18.02;85.60
77247;SHT35;66279;42.820;23.374;2023-08-17T04:41:15;18.06;85.08
77247;SHT35;66279;42.820;23.374;2023-08-17T04:43:42;18.19;85.07
77247;SHT35;66279;42.820;23.374;2023-08-17T04:46:08;18.19;85.03
77247;SHT35;66279;42.820;23.374;2023-08-17T04:48:33;18.29;84.74
77247;SHT35;66279;42.820;23.374;2023-08-17T04:50:59;18.38;85.26
77247;SHT35;66279;42.820;23.374;2023-08-17T04:53:25;18.42;85.28
77247;SHT35;66279;42.820;23.374;2023-08-17T04:55:50;18.48;85.56
77247;SHT35;66279;42.820;23.374;2023-08-17T04:58:16;18.56;85.10
77247;SHT35;66279;42.820;23.374;2023-08-17T05:00:41;18.62;84.51
77247;SHT35;66279;42.820;23.374;2023-08-17T05:03:07;18.67;84.22
77247;SHT35;66279;42.820;23.374;2023-08-17T05:05:32;18.83;84.46
77247;SHT35;66279;42.820;23.374;2023-08-17T05:07:58;18.93;84.16
77247;SHT35;66279;42.820;23.374;2023-08-17T05:10:24;18.97;84.20
77247;SHT35;66279;42.820;23.374;2023-08-17T05:12:50;19.04;83.92
77247;SHT35;66279;42.820;23.374;2023-08-17T05:15:15;19.15;83.79
77247;SHT35;66279;42.820;23.374;2023-08-17T05:17:41;19.22;83.10
77247;SHT35;66279;42.820;23.374;2023-08-17T05:20:07;19.34;82.89
77247;SHT35;66279;42.820;23.374;2023-08-17T05:22:33;19.42;82.18
77247;SHT35;66279;42.820;23.374;2023-08-17T05:24:59;19.48;81.29
77247;SHT35;66279;42.820;23.374;2023-08-17T05:27:24;19.59;80.61
77247;SHT35;66279;42.820;23.374;2023-08-17T05:29:50;19.72;80.33
77247;SHT35;66279;42.820;23.374;2023-08-17T05:32:15;19.90;80.19
77247;SHT35;66279;42.820;23.374;2023-08-17T05:34:41;20.07;80.27
77247;SHT35;66279;42.820;23.374;2023-08-17T05:37:06;20.17;79.58
77247;SHT35;66279;42.820;23.374;2023-08-17T05:39:33;20.33;79.30
77247;SHT35;66279;42.820;23.374;2023-08-17T05:41:58;20.45;79.04
77247;SHT35;66279;42.820;23.374;2023-08-17T05:44:24;20.64;78.60
77247;SHT35;66279;42.820;23.374;2023-08-17T05:46:49;20.79;78.40
77247;SHT35;66279;42.820;23.374;2023-08-17T05:49:15;20.95;77.63
77247;SHT35;66279;42.820;23.374;2023-08-17T05:51:40;21.10;78.01
77247;SHT35;66279;42.820;23.374;2023-08-17T05:54:06;21.26;77.38
77247;SHT35;66279;42.820;23.374;2023-08-17T05:56:32;21.46;76.93
77247;SHT35;66279;42.820;23.374;2023-08-17T05:58:58;21.73;76.62
77247;SHT35;66279;42.820;23.374;2023-08-17T06:01:23;21.94;75.18
77247;SHT35;66279;42.820;23.374;2023-08-17T06:03:49;22.09;75.49
77247;SHT35;66279;42.820;23.374;2023-08-17T06:06:15;22.32;75.90
77247;SHT35;66279;42.820;23.374;2023-08-17T06:08:40;22.53;74.38
77247;SHT35;66279;42.820;23.374;2023-08-17T06:11:06;22.84;73.80
77247;SHT35;66279;42.820;23.374;2023-08-17T06:13:32;23.06;72.96
77247;SHT35;66279;42.820;23.374;2023-08-17T06:15:57;23.37;72.27
77247;SHT35;66279;42.820;23.374;2023-08-17T06:18:23;23.58;71.22
77247;SHT35;66279;42.820;23.374;2023-08-17T06:20:48;23.82;71.40
77247;SHT35;66279;42.820;23.374;2023-08-17T06:23:17;24.08;70.24
77247;SHT35;66279;42.820;23.374;2023-08-17T06:25:42;24.30;69.30
77247;SHT35;66279;42.820;23.374;2023-08-17T06:28:08;24.50;67.39
77247;SHT35;66279;42.820;23.374;2023-08-17T06:30:33;24.84;67.76
77247;SHT35;66279;42.820;23.374;2023-08-17T06:32:59;25.09;66.83
77247;SHT35;66279;42.820;23.374;2023-08-17T06:35:25;25.36;65.06
77247;SHT35;66279;42.820;23.374;2023-08-17T06:37:50;25.54;66.37
77247;SHT35;66279;42.820;23.374;2023-08-17T06:40:16;25.81;65.21
77247;SHT35;66279;42.820;23.374;2023-08-17T06:42:42;26.07;63.94
77247;SHT35;66279;42.820;23.374;2023-08-17T06:45:08;26.16;62.93
77247;SHT35;66279;42.820;23.374;2023-08-17T06:47:33;26.25;61.86
77247;SHT35;66279;42.820;23.374;2023-08-17T06:49:59;26.44;61.78
77247;SHT35;66279;42.820;23.374;2023-08-17T06:52:24;26.55;60.42
77247;SHT35;66279;42.820;23.374;2023-08-17T06:54:50;26.79;57.04
77247;SHT35;66279;42.820;23.374;2023-08-17T06:57:16;26.96;59.46
77247;SHT35;66279;42.820;23.374;2023-08-17T06:59:41;26.97;58.39
77247;SHT35;66279;42.820;23.374;2023-08-17T07:02:07;27.18;58.36
77247;SHT35;66279;42.820;23.374;2023-08-17T07:04:32;27.45;59.16
77247;SHT35;66279;42.820;23.374;2023-08-17T07:06:58;27.62;57.73
77247;SHT35;66279;42.820;23.374;2023-08-17T07:09:25;27.94;56.14
77247;SHT35;66279;42.820;23.374;2023-08-17T07:11:52;28.12;54.51
77247;SHT35;66279;42.820;23.374;2023-08-17T07:14:18;28.33;56.70
77247;SHT35;66279;42.820;23.374;2023-08-17T07:16:43;28.52;53.59
77247;SHT35;66279;42.820;23.374;2023-08-17T07:19:09;28.61;54.64
77247;SHT35;66279;42.820;23.374;2023-08-17T07:21:35;28.60;51.64
77247;SHT35;66279;42.820;23.374;2023-08-17T07:24:12;28.91;50.75
77247;SHT35;66279;42.820;23.374;2023-08-17T07:26:38;29.15;49.37
77247;SHT35;66279;42.820;23.374;2023-08-17T07:29:03;29.14;52.67
77247;SHT35;66279;42.820;23.374;2023-08-17T07:31:29;29.33;50.15
77247;SHT35;66279;42.820;23.374;2023-08-17T07:33:54;29.31;47.18
77247;SHT35;66279;42.820;23.374;2023-08-17T07:36:19;29.32;47.66
77247;SHT35;66279;42.820;23.374;2023-08-17T07:38:45;29.59;47.83
77247;SHT35;66279;42.820;23.374;2023-08-17T07:41:11;29.63;47.64
77247;SHT35;66279;42.820;23.374;2023-08-17T07:43:36;29.76;46.87
77247;SHT35;66279;42.820;23.374;2023-08-17T07:46:01;30.13;45.44
77247;SHT35;66279;42.820;23.374;2023-08-17T07:48:27;30.35;45.95
77247;SHT35;66279;42.820;23.374;2023-08-17T07:50:53;29.86;45.59
77247;SHT35;66279;42.820;23.374;2023-08-17T07:53:19;30.21;45.18
77247;SHT35;66279;42.820;23.374;2023-08-17T07:55:45;30.13;46.47
77247;SHT35;66279;42.820;23.374;2023-08-17T07:58:11;30.31;46.94
77247;SHT35;66279;42.820;23.374;2023-08-17T08:00:37;30.38;46.13
77247;SHT35;66279;42.820;23.374;2023-08-17T08:03:03;30.64;45.52
77247;SHT35;66279;42.820;23.374;2023-08-17T08:05:29;30.79;44.31
77247;SHT35;66279;42.820;23.374;2023-08-17T08:07:54;30.65;44.28
77247;SHT35;66279;42.820;23.374;2023-08-17T08:10:20;30.62;44.75
77247;SHT35;66279;42.820;23.374;2023-08-17T08:12:45;30.85;44.56
77247;SHT35;66279;42.820;23.374;2023-08-17T08:15:11;30.51;46.15
77247;SHT35;66279;42.820;23.374;2023-08-17T08:17:37;30.37;46.24
77247;SHT35;66279;42.820;23.374;2023-08-17T08:20:03;30.69;45.66
77247;SHT35;66279;42.820;23.374;2023-08-17T08:22:29;31.04;44.78
77247;SHT35;66279;42.820;23.374;2023-08-17T08:24:55;30.80;44.03
77247;SHT35;66279;42.820;23.374;2023-08-17T08:27:20;30.93;44.05
77247;SHT35;66279;42.820;23.374;2023-08-17T08:29:46;30.89;44.31
77247;SHT35;66279;42.820;23.374;2023-08-17T08:32:12;30.90;45.89
77247;SHT35;66279;42.820;23.374;2023-08-17T08:34:37;30.90;43.48
77247;SHT35;66279;42.820;23.374;2023-08-17T08:37:03;31.34;45.10
77247;SHT35;66279;42.820;23.374;2023-08-17T08:39:29;31.73;42.49
77247;SHT35;66279;42.820;23.374;2023-08-17T08:41:55;31.70;42.13
77247;SHT35;66279;42.820;23.374;2023-08-17T08:44:20;31.68;42.57
77247;SHT35;66279;42.820;23.374;2023-08-17T08:46:47;31.54;42.01
77247;SHT35;66279;42.820;23.374;2023-08-17T08:49:19;31.25;42.29
77247;SHT35;66279;42.820;23.374;2023-08-17T08:51:49;31.50;43.91
77247;SHT35;66279;42.820;23.374;2023-08-17T08:54:20;32.01;41.11
77247;SHT35;66279;42.820;23.374;2023-08-17T08:56:50;32.60;42.28
77247;SHT35;66279;42.820;23.374;2023-08-17T08:59:17;32.76;39.18
77247;SHT35;66279;42.820;23.374;2023-08-17T09:01:42;32.91;39.98
77247;SHT35;66279;42.820;23.374;2023-08-17T09:04:08;33.41;40.32
77247;SHT35;66279;42.820;23.374;2023-08-17T09:06:34;33.37;38.80
77247;SHT35;66279;42.820;23.374;2023-08-17T09:09:01;33.06;40.70
77247;SHT35;66279;42.820;23.374;2023-08-17T09:11:27;32.59;39.61
77247;SHT35;66279;42.820;23.374;2023-08-17T09:13:53;32.91;38.56
77247;SHT35;66279;42.820;23.374;2023-08-17T09:16:19;32.60;39.30
77247;SHT35;66279;42.820;23.374;2023-08-17T09:18:45;32.66;40.23
77247;SHT35;66279;42.820;23.374;2023-08-17T09:21:23;32.76;40.43
77247;SHT35;66279;42.820;23.374;2023-08-17T09:23:53;32.99;38.98
77247;SHT35;66279;42.820;23.374;2023-08-17T09:26:23;32.18;39.25
77247;SHT35;66279;42.820;23.374;2023-08-17T09:28:52;32.19;40.94
77247;SHT35;66279;42.820;23.374;2023-08-17T09:31:24;32.96;38.71
77247;SHT35;66279;42.820;23.374;2023-08-17T09:33:50;33.37;37.68
77247;SHT35;66279;42.820;23.374;2023-08-17T09:36:20;33.79;37.64
77247;SHT35;66279;42.820;23.374;2023-08-17T09:38:50;33.59;37.31
77247;SHT35;66279;42.820;23.374;2023-08-17T09:41:17;33.54;37.59
77247;SHT35;66279;42.820;23.374;2023-08-17T09:43:43;33.66;37.46
77247;SHT35;66279;42.820;23.374;2023-08-17T09:46:09;33.83;36.87
77247;SHT35;66279;42.820;23.374;2023-08-17T09:48:34;33.88;36.26
77247;SHT35;66279;42.820;23.374;2023-08-17T09:51:01;34.19;36.45
77247;SHT35;66279;42.820;23.374;2023-08-17T09:53:27;34.36;36.34
77247;SHT35;66279;42.820;23.374;2023-08-17T09:55:53;33.65;36.57
77247;SHT35;66279;42.820;23.374;2023-08-17T09:58:19;33.59;37.39
77247;SHT35;66279;42.820;23.374;2023-08-17T10:00:46;33.50;36.66
77247;SHT35;66279;42.820;23.374;2023-08-17T10:03:15;33.28;36.79
77247;SHT35;66279;42.820;23.374;2023-08-17T10:05:48;33.71;37.44
77247;SHT35;66279;42.820;23.374;2023-08-17T10:08:20;34.09;36.25
77247;SHT35;66279;42.820;23.374;2023-08-17T10:10:47;34.17;36.12
77247;SHT35;66279;42.820;23.374;2023-08-17T10:13:35;34.03;36.36
77247;SHT35;66279;42.820;23.374;2023-08-17T10:16:23;33.96;36.97
77247;SHT35;66279;42.820;23.374;2023-08-17T10:21:36;33.40;37.27
77247;SHT35;66279;42.820;23.374;2023-08-17T10:24:02;33.42;37.40
77247;SHT35;66279;42.820;23.374;2023-08-17T10:26:29;33.91;37.62
77247;SHT35;66279;42.820;23.374;2023-08-17T10:28:55;33.73;37.15
77247;SHT35;66279;42.820;23.374;2023-08-17T10:31:24;34.41;36.65
77247;SHT35;66279;42.820;23.374;2023-08-17T10:33:50;34.90;37.16
77247;SHT35;66279;42.820;23.374;2023-08-17T10:36:16;34.95;35.71
77247;SHT35;66279;42.820;23.374;2023-08-17T10:38:42;34.29;36.38
77247;SHT35;66279;42.820;23.374;2023-08-17T10:41:12;34.12;36.90
77247;SHT35;66279;42.820;23.374;2023-08-17T10:43:57;33.65;37.56
77247;SHT35;66279;42.820;23.374;2023-08-17T10:46:36;33.81;36.64
77247;SHT35;66279;42.820;23.374;2023-08-17T10:49:04;33.69;37.57
77247;SHT35;66279;42.820;23.374;2023-08-17T10:51:30;33.66;37.91
77247;SHT35;66279;42.820;23.374;2023-08-17T10:53:58;33.66;37.54
77247;SHT35;66279;42.820;23.374;2023-08-17T10:56:24;33.59;37.73
77247;SHT35;66279;42.820;23.374;2023-08-17T10:58:51;33.62;37.47
77247;SHT35;66279;42.820;23.374;2023-08-17T11:01:40;33.88;37.48
77247;SHT35;66279;42.820;23.374;2023-08-17T11:04:17;34.10;37.01
77247;SHT35;66279;42.820;23.374;2023-08-17T11:07:01;33.78;37.68
77247;SHT35;66279;42.820;23.374;2023-08-17T11:09:27;34.10;37.21
77247;SHT35;66279;42.820;23.374;2023-08-17T11:11:53;33.96;37.63
77247;SHT35;66279;42.820;23.374;2023-08-17T11:14:20;33.69;37.06
77247;SHT35;66279;42.820;23.374;2023-08-17T11:16:46;33.73;38.16
77247;SHT35;66279;42.820;23.374;2023-08-17T11:19:12;34.26;37.08
77247;SHT35;66279;42.820;23.374;2023-08-17T11:21:37;34.27;36.82
77247;SHT35;66279;42.820;23.374;2023-08-17T11:24:04;34.27;37.41
77247;SHT35;66279;42.820;23.374;2023-08-17T11:26:36;33.99;37.27
77247;SHT35;66279;42.820;23.374;2023-08-17T11:29:02;34.15;36.72
77247;SHT35;66279;42.820;23.374;2023-08-17T11:31:28;33.93;37.80
77247;SHT35;66279;42.820;23.374;2023-08-17T11:33:54;34.00;37.95
77247;SHT35;66279;42.820;23.374;2023-08-17T11:36:19;34.24;36.89
77247;SHT35;66279;42.820;23.374;2023-08-17T11:38:47;34.46;36.35
77247;SHT35;66279;42.820;23.374;2023-08-17T11:41:12;34.19;36.21
77247;SHT35;66279;42.820;23.374;2023-08-17T11:43:40;34.00;37.23
77247;SHT35;66279;42.820;23.374;2023-08-17T11:46:05;34.05;37.67
77247;SHT35;66279;42.820;23.374;2023-08-17T11:48:31;34.29;37.13
77247;SHT35;66279;42.820;23.374;2023-08-17T11:50:57;33.65;37.93
77247;SHT35;66279;42.820;23.374;2023-08-17T11:53:24;34.09;38.14
77247;SHT35;66279;42.820;23.374;2023-08-17T11:55:50;33.79;37.44
77247;SHT35;66279;42.820;23.374;2023-08-17T11:58:15;33.81;38.07
77247;SHT35;66279;42.820;23.374;2023-08-17T12:00:43;34.24;38.16
77247;SHT35;66279;42.820;23.374;2023-08-17T12:03:12;34.41;36.88
77247;SHT35;66279;42.820;23.374;2023-08-17T12:05:38;33.85;36.97
77247;SHT35;66279;42.820;23.374;2023-08-17T12:08:04;33.96;37.84
77247;SHT35;66279;42.820;23.374;2023-08-17T12:10:31;34.20;36.78
77247;SHT35;66279;42.820;23.374;2023-08-17T12:13:00;34.54;36.86
77247;SHT35;66279;42.820;23.374;2023-08-17T12:15:35;34.06;36.57
77247;SHT35;66279;42.820;23.374;2023-08-17T12:18:04;34.20;37.84
77247;SHT35;66279;42.820;23.374;2023-08-17T12:20:31;34.00;37.85
77247;SHT35;66279;42.820;23.374;2023-08-17T12:22:58;34.15;37.94
77247;SHT35;66279;42.820;23.374;2023-08-17T12:25:27;34.12;37.32
77247;SHT35;66279;42.820;23.374;2023-08-17T12:27:52;33.88;37.96
77247;SHT35;66279;42.820;23.374;2023-08-17T12:32:51;34.27;36.74
77247;SHT35;66279;42.820;23.374;2023-08-17T12:35:17;34.23;36.96
77247;SHT35;66279;42.820;23.374;2023-08-17T12:37:43;34.17;37.08
77247;SHT35;66279;42.820;23.374;2023-08-17T12:40:09;34.27;36.82
77247;SHT35;66279;42.820;23.374;2023-08-17T12:42:35;33.99;36.68
77247;SHT35;66279;42.820;23.374;2023-08-17T12:45:00;34.03;36.48
77247;SHT35;66279;42.820;23.374;2023-08-17T12:47:26;33.54;37.10
77247;SHT35;66279;42.820;23.374;2023-08-17T12:49:51;33.42;37.36
77247;SHT35;66279;42.820;23.374;2023-08-17T12:52:18;33.95;37.72
77247;SHT35;66279;42.820;23.374;2023-08-17T12:54:44;34.19;36.65
77247;SHT35;66279;42.820;23.374;2023-08-17T12:57:09;34.53;35.88
77247;SHT35;66279;42.820;23.374;2023-08-17T12:59:35;34.67;35.54
77247;SHT35;66279;42.820;23.374;2023-08-17T13:02:00;34.41;36.02
77247;SHT35;66279;42.820;23.374;2023-08-17T13:04:26;34.44;36.36
77247;SHT35;66279;42.820;23.374;2023-08-17T13:06:52;34.47;36.92
77247;SHT35;66279;42.820;23.374;2023-08-17T13:09:19;34.56;36.35
77247;SHT35;66279;42.820;23.374;2023-08-17T13:11:45;34.29;36.42
77247;SHT35;66279;42.820;23.374;2023-08-17T13:14:14;34.05;36.50
77247;SHT35;66279;42.820;23.374;2023-08-17T13:16:41;33.73;36.68
77247;SHT35;66279;42.820;23.374;2023-08-17T13:19:07;33.72;37.03
77247;SHT35;66279;42.820;23.374;2023-08-17T13:21:33;33.75;36.32
77247;SHT35;66279;42.820;23.374;2023-08-17T13:23:58;33.03;37.32
77247;SHT35;66279;42.820;23.374;2023-08-17T13:26:24;33.55;38.01
77247;SHT35;66279;42.820;23.374;2023-08-17T13:28:49;33.83;37.15
77247;SHT35;66279;42.820;23.374;2023-08-17T13:31:15;33.71;36.24
77247;SHT35;66279;42.820;23.374;2023-08-17T13:33:40;33.85;36.49
77247;SHT35;66279;42.820;23.374;2023-08-17T13:36:06;33.83;35.58
77247;SHT35;66279;42.820;23.374;2023-08-17T13:38:32;34.02;35.83
77247;SHT35;66279;42.820;23.374;2023-08-17T13:40:57;33.83;34.94
77247;SHT35;66279;42.820;23.374;2023-08-17T13:43:23;33.91;35.41
77247;SHT35;66279;42.820;23.374;2023-08-17T13:45:48;33.89;35.97
77247;SHT35;66279;42.820;23.374;2023-08-17T13:48:14;33.93;36.14
77247;SHT35;66279;42.820;23.374;2023-08-17T13:50:39;33.85;36.32
77247;SHT35;66279;42.820;23.374;2023-08-17T13:53:05;34.02;36.23
77247;SHT35;66279;42.820;23.374;2023-08-17T13:55:31;34.20;35.50
77247;SHT35;66279;42.820;23.374;2023-08-17T13:57:57;34.06;35.42
77247;SHT35;66279;42.820;23.374;2023-08-17T14:00:23;33.51;36.57
77247;SHT35;66279;42.820;23.374;2023-08-17T14:02:49;33.68;36.74
77247;SHT35;66279;42.820;23.374;2023-08-17T14:05:15;33.55;35.98
77247;SHT35;66279;42.820;23.374;2023-08-17T14:07:40;33.11;37.52
77247;SHT35;66279;42.820;23.374;2023-08-17T14:10:06;33.51;36.85
77247;SHT35;66279;42.820;23.374;2023-08-17T14:12:32;33.86;36.41
77247;SHT35;66279;42.820;23.374;2023-08-17T14:14:57;33.88;36.38
77247;SHT35;66279;42.820;23.374;2023-08-17T14:17:23;33.78;36.37
77247;SHT35;66279;42.820;23.374;2023-08-17T14:19:49;33.91;36.19
77247;SHT35;66279;42.820;23.374;2023-08-17T14:22:21;33.38;36.16
77247;SHT35;66279;42.820;23.374;2023-08-17T14:24:46;33.28;35.91
77247;SHT35;66279;42.820;23.374;2023-08-17T14:27:12;33.37;36.16
77247;SHT35;66279;42.820;23.374;2023-08-17T14:29:38;33.38;36.00
77247;SHT35;66279;42.820;23.374;2023-08-17T14:32:04;33.38;36.24
77247;SHT35;66279;42.820;23.374;2023-08-17T14:34:29;33.35;36.09
77247;SHT35;66279;42.820;23.374;2023-08-17T14:36:55;33.20;36.57
77247;SHT35;66279;42.820;23.374;2023-08-17T14:39:21;33.04;35.77
77247;SHT35;66279;42.820;23.374;2023-08-17T14:41:46;32.76;36.40
77247;SHT35;66279;42.820;23.374;2023-08-17T14:44:12;33.14;36.66
77247;SHT35;66279;42.820;23.374;2023-08-17T14:46:37;33.03;36.41
77247;SHT35;66279;42.820;23.374;2023-08-17T14:49:04;33.08;36.02
77247;SHT35;66279;42.820;23.374;2023-08-17T14:51:31;32.82;36.52
77247;SHT35;66279;42.820;23.374;2023-08-17T14:54:03;32.76;36.45
77247;SHT35;66279;42.820;23.374;2023-08-17T14:56:29;32.66;36.43
77247;SHT35;66279;42.820;23.374;2023-08-17T14:58:54;32.64;36.37
77247;SHT35;66279;42.820;23.374;2023-08-17T15:01:20;32.79;36.61
77247;SHT35;66279;42.820;23.374;2023-08-17T15:03:45;32.39;36.68
77247;SHT35;66279;42.820;23.374;2023-08-17T15:06:12;32.62;37.12
77247;SHT35;66279;42.820;23.374;2023-08-17T15:08:37;32.46;37.40
77247;SHT35;66279;42.820;23.374;2023-08-17T15:11:03;32.64;37.55
77247;SHT35;66279;42.820;23.374;2023-08-17T15:13:31;32.60;37.11
77247;SHT35;66279;42.820;23.374;2023-08-17T15:16:14;32.80;36.91
77247;SHT35;66279;42.820;23.374;2023-08-17T15:18:40;32.51;37.05
77247;SHT35;66279;42.820;23.374;2023-08-17T15:21:05;32.48;37.53